sensor_id;sensor_type;location;lat;lon;timestamp;pressure;altitude;pressure_sealevel;temperature;humidity
51829;BME280;37881;48.024;8.774;2023-05-20T00:00:44;93920.53;;;10.99;100.00
51829;BME280;37881;48.024;8.774;2023-05-20T00:03:18;93924.72;;;11.08;100.00
51829;BME280;37881;48.024;8.774;2023-05-20T00:05:47;93915.69;;;11.07;100.00
51829;BME280;37881;48.024;8.774;2023-05-20T00:08:14;93919.94;;;10.88;100.00
51829;BME280;37881;48.024;8.774;2023-05-20T00:10:41;93915.00;;;11.03;100.00
51829;BME280;37881;48.024;8.774;2023-05-20T00:13:08;93914.28;;;10.99;100.00
51829;BME280;37881;48.024;8.774;2023-05-20T00:15:34;93911.63;;;10.92;100.00
51829;BME280;37881;48.024;8.774;2023-05-20T00:18:02;93904.88;;;10.96;100.00
51829;BME280;37881;48.024;8.774;2023-05-20T00:20:30;93905.72;;;10.93;100.00
51829;BME280;37881;48.024;8.774;2023-05-20T00:22:57;93896.78;;;10.89;100.00
51829;BME280;37881;48.024;8.774;2023-05-20T00:25:24;93905.56;;;10.81;100.00
51829;BME280;37881;48.024;8.774;2023-05-20T00:27:51;93901.72;;;10.74;100.00
51829;BME280;37881;48.024;8.774;2023-05-20T00:30:17;93900.03;;;10.57;100.00
51829;BME280;37881;48.024;8.774;2023-05-20T00:32:44;93892.47;;;10.65;100.00
51829;BME280;37881;48.024;8.774;2023-05-20T00:35:11;93889.78;;;10.61;100.00
51829;BME280;37881;48.024;8.774;2023-05-20T00:37:38;93881.47;;;10.41;100.00
51829;BME280;37881;48.024;8.774;2023-05-20T00:40:05;93890.16;;;10.36;100.00
51829;BME280;37881;48.024;8.774;2023-05-20T00:42:32;93891.00;;;10.33;100.00
51829;BME280;37881;48.024;8.774;2023-05-20T00:44:59;93887.13;;;10.27;100.00
51829;BME280;37881;48.024;8.774;2023-05-20T00:47:29;93882.06;;;10.25;100.00
51829;BME280;37881;48.024;8.774;2023-05-20T00:49:59;93878.59;;;10.21;100.00
51829;BME280;37881;48.024;8.774;2023-05-20T00:52:30;93874.72;;;10.18;100.00
51829;BME280;37881;48.024;8.774;2023-05-20T00:54:58;93863.84;;;10.11;100.00
51829;BME280;37881;48.024;8.774;2023-05-20T00:57:25;93861.94;;;10.08;100.00
51829;BME280;37881;48.024;8.774;2023-05-20T00:59:52;93859.44;;;10.17;100.00
51829;BME280;37881;48.024;8.774;2023-05-20T01:02:19;93858.72;;;10.13;100.00
51829;BME280;37881;48.024;8.774;2023-05-20T01:04:46;93860.19;;;9.94;100.00
51829;BME280;37881;48.024;8.774;2023-05-20T01:07:17;93861.22;;;10.04;100.00
51829;BME280;37881;48.024;8.774;2023-05-20T01:09:44;93864.22;;;9.86;100.00
51829;BME280;37881;48.024;8.774;2023-05-20T01:12:22;93872.50;;;9.79;100.00
51829;BME280;37881;48.024;8.774;2023-05-20T01:15:00;93850.91;;;9.85;100.00
51829;BME280;37881;48.024;8.774;2023-05-20T01:17:30;93859.94;;;9.82;100.00
51829;BME280;37881;48.024;8.774;2023-05-20T01:19:59;93858.28;;;9.88;100.00
51829;BME280;37881;48.024;8.774;2023-05-20T01:22:27;93858.72;;;9.86;100.00
51829;BME280;37881;48.024;8.774;2023-05-20T01:24:54;93858.16;;;9.98;100.00
51829;BME280;37881;48.024;8.774;2023-05-20T01:27:22;93864.41;;;9.99;100.00
51829;BME280;37881;48.024;8.774;2023-05-20T01:29:50;93863.16;;;10.04;100.00
51829;BME280;37881;48.024;8.774;2023-05-20T01:32:21;93854.69;;;9.94;100.00
51829;BME280;37881;48.024;8.774;2023-05-20T01:34:49;93854.22;;;9.99;100.00
51829;BME280;37881;48.024;8.774;2023-05-20T01:37:18;93847.06;;;10.06;100.00
51829;BME280;37881;48.024;8.774;2023-05-20T01:39:47;93849.16;;;9.98;100.00
51829;BME280;37881;48.024;8.774;2023-05-20T01:42:15;93845.19;;;10.03;100.00
51829;BME280;37881;48.024;8.774;2023-05-20T01:44:42;93849.25;;;9.91;100.00
51829;BME280;37881;48.024;8.774;2023-05-20T01:47:09;93848.03;;;9.65;100.00
51829;BME280;37881;48.024;8.774;2023-05-20T01:49:36;93853.38;;;9.45;100.00
51829;BME280;37881;48.024;8.774;2023-05-20T01:52:03;93854.13;;;9.45;100.00
51829;BME280;37881;48.024;8.774;2023-05-20T01:54:30;93848.59;;;9.52;100.00
51829;BME280;37881;48.024;8.774;2023-05-20T01:56:57;93845.94;;;9.76;100.00
51829;BME280;37881;48.024;8.774;2023-05-20T01:59:23;93847.25;;;9.64;100.00
51829;BME280;37881;48.024;8.774;2023-05-20T02:01:50;93845.50;;;9.47;100.00
51829;BME280;37881;48.024;8.774;2023-05-20T02:04:17;93844.06;;;9.69;100.00
51829;BME280;37881;48.024;8.774;2023-05-20T02:06:44;93849.31;;;9.56;100.00
51829;BME280;37881;48.024;8.774;2023-05-20T02:09:11;93846.63;;;9.53;100.00
51829;BME280;37881;48.024;8.774;2023-05-20T02:11:38;93847.44;;;9.50;100.00
51829;BME280;37881;48.024;8.774;2023-05-20T02:14:05;93850.00;;;9.64;100.00
51829;BME280;37881;48.024;8.774;2023-05-20T02:16:32;93846.84;;;9.66;100.00
51829;BME280;37881;48.024;8.774;2023-05-20T02:18:59;93860.47;;;9.73;100.00
51829;BME280;37881;48.024;8.774;2023-05-20T02:21:27;93854.94;;;9.76;100.00
51829;BME280;37881;48.024;8.774;2023-05-20T02:23:54;93853.97;;;9.59;100.00
51829;BME280;37881;48.024;8.774;2023-05-20T02:26:21;93862.66;;;9.54;100.00
51829;BME280;37881;48.024;8.774;2023-05-20T02:28:48;93855.78;;;9.70;100.00
51829;BME280;37881;48.024;8.774;2023-05-20T02:31:16;93856.88;;;9.45;100.00
51829;BME280;37881;48.024;8.774;2023-05-20T02:33:44;93867.66;;;9.59;100.00
51829;BME280;37881;48.024;8.774;2023-05-20T02:36:11;93867.72;;;9.56;100.00
51829;BME280;37881;48.024;8.774;2023-05-20T02:38:38;93867.97;;;9.65;100.00
51829;BME280;37881;48.024;8.774;2023-05-20T02:41:05;93865.25;;;9.65;100.00
51829;BME280;37881;48.024;8.774;2023-05-20T02:43:32;93873.13;;;9.59;100.00
51829;BME280;37881;48.024;8.774;2023-05-20T02:45:59;93854.59;;;9.71;100.00
51829;BME280;37881;48.024;8.774;2023-05-20T02:48:26;93853.50;;;9.65;100.00
51829;BME280;37881;48.024;8.774;2023-05-20T02:50:52;93853.38;;;9.75;100.00
51829;BME280;37881;48.024;8.774;2023-05-20T02:53:19;93856.53;;;9.74;100.00
51829;BME280;37881;48.024;8.774;2023-05-20T02:55:46;93853.59;;;9.88;100.00
51829;BME280;37881;48.024;8.774;2023-05-20T02:58:14;93847.97;;;9.99;100.00
51829;BME280;37881;48.024;8.774;2023-05-20T03:00:43;93838.16;;;9.71;100.00
51829;BME280;37881;48.024;8.774;2023-05-20T03:03:10;93836.91;;;9.75;100.00
51829;BME280;37881;48.024;8.774;2023-05-20T03:05:39;93839.72;;;9.72;100.00
51829;BME280;37881;48.024;8.774;2023-05-20T03:08:09;93830.47;;;9.62;100.00
51829;BME280;37881;48.024;8.774;2023-05-20T03:10:36;93836.13;;;9.78;100.00
51829;BME280;37881;48.024;8.774;2023-05-20T03:13:05;93837.19;;;9.85;100.00
51829;BME280;37881;48.024;8.774;2023-05-20T03:15:37;93832.44;;;9.89;100.00
51829;BME280;37881;48.024;8.774;2023-05-20T03:18:05;93845.31;;;9.92;100.00
51829;BME280;37881;48.024;8.774;2023-05-20T03:20:33;93841.13;;;9.84;100.00
51829;BME280;37881;48.024;8.774;2023-05-20T03:23:03;93840.00;;;9.81;100.00
51829;BME280;37881;48.024;8.774;2023-05-20T03:25:30;93833.75;;;9.80;100.00
51829;BME280;37881;48.024;8.774;2023-05-20T03:27:57;93833.34;;;9.82;100.00
51829;BME280;37881;48.024;8.774;2023-05-20T03:30:28;93840.25;;;9.90;100.00
51829;BME280;37881;48.024;8.774;2023-05-20T03:32:55;93834.47;;;9.85;100.00
51829;BME280;37881;48.024;8.774;2023-05-20T03:35:25;93829.50;;;10.03;100.00
51829;BME280;37881;48.024;8.774;2023-05-20T03:37:52;93835.28;;;10.09;100.00
51829;BME280;37881;48.024;8.774;2023-05-20T03:40:19;93836.75;;;10.17;100.00
51829;BME280;37881;48.024;8.774;2023-05-20T03:42:48;93832.41;;;9.92;100.00
51829;BME280;37881;48.024;8.774;2023-05-20T03:45:17;93840.03;;;9.77;100.00
51829;BME280;37881;48.024;8.774;2023-05-20T03:47:44;93829.94;;;9.71;100.00
51829;BME280;37881;48.024;8.774;2023-05-20T03:50:11;93826.75;;;9.76;100.00
51829;BME280;37881;48.024;8.774;2023-05-20T03:52:37;93826.19;;;9.88;100.00
51829;BME280;37881;48.024;8.774;2023-05-20T03:55:06;93823.13;;;9.83;100.00
51829;BME280;37881;48.024;8.774;2023-05-20T03:57:34;93821.00;;;9.94;100.00
51829;BME280;37881;48.024;8.774;2023-05-20T04:00:03;93824.78;;;10.04;100.00
51829;BME280;37881;48.024;8.774;2023-05-20T04:02:35;93833.78;;;9.77;100.00
51829;BME280;37881;48.024;8.774;2023-05-20T04:05:03;93831.78;;;10.08;100.00
51829;BME280;37881;48.024;8.774;2023-05-20T04:07:30;93842.03;;;10.04;100.00
51829;BME280;37881;48.024;8.774;2023-05-20T04:09:56;93842.00;;;9.77;100.00
51829;BME280;37881;48.024;8.774;2023-05-20T04:12:24;93834.28;;;9.68;100.00
51829;BME280;37881;48.024;8.774;2023-05-20T04:14:57;93839.09;;;9.88;100.00
51829;BME280;37881;48.024;8.774;2023-05-20T04:17:24;93845.47;;;9.81;100.00
51829;BME280;37881;48.024;8.774;2023-05-20T04:19:51;93835.72;;;9.80;100.00
51829;BME280;37881;48.024;8.774;2023-05-20T04:22:18;93834.41;;;9.88;100.00
51829;BME280;37881;48.024;8.774;2023-05-20T04:24:45;93834.09;;;9.83;100.00
51829;BME280;37881;48.024;8.774;2023-05-20T04:27:12;93831.19;;;9.66;100.00
51829;BME280;37881;48.024;8.774;2023-05-20T04:29:39;93831.56;;;9.68;100.00
51829;BME280;37881;48.024;8.774;2023-05-20T04:32:06;93836.53;;;9.77;100.00
51829;BME280;37881;48.024;8.774;2023-05-20T04:34:36;93841.13;;;9.84;100.00
51829;BME280;37881;48.024;8.774;2023-05-20T04:37:03;93833.13;;;9.96;100.00
51829;BME280;37881;48.024;8.774;2023-05-20T04:39:30;93823.84;;;10.14;100.00
51829;BME280;37881;48.024;8.774;2023-05-20T04:41:56;93823.59;;;10.32;100.00
51829;BME280;37881;48.024;8.774;2023-05-20T04:44:23;93817.13;;;10.46;100.00
51829;BME280;37881;48.024;8.774;2023-05-20T04:46:51;93819.03;;;10.49;100.00
51829;BME280;37881;48.024;8.774;2023-05-20T04:49:18;93818.19;;;9.74;100.00
51829;BME280;37881;48.024;8.774;2023-05-20T04:51:45;93818.75;;;9.89;100.00
51829;BME280;37881;48.024;8.774;2023-05-20T04:54:15;93812.81;;;10.17;100.00
51829;BME280;37881;48.024;8.774;2023-05-20T04:56:43;93807.25;;;10.48;100.00
51829;BME280;37881;48.024;8.774;2023-05-20T04:59:10;93810.66;;;10.56;100.00
51829;BME280;37881;48.024;8.774;2023-05-20T05:01:36;93802.38;;;10.83;100.00
51829;BME280;37881;48.024;8.774;2023-05-20T05:04:03;93809.91;;;10.55;100.00
51829;BME280;37881;48.024;8.774;2023-05-20T05:06:30;93799.38;;;10.74;100.00
51829;BME280;37881;48.024;8.774;2023-05-20T05:08:57;93799.06;;;10.92;100.00
51829;BME280;37881;48.024;8.774;2023-05-20T05:11:24;93806.91;;;10.46;100.00
51829;BME280;37881;48.024;8.774;2023-05-20T05:13:51;93803.88;;;10.64;100.00
51829;BME280;37881;48.024;8.774;2023-05-20T05:16:20;93810.88;;;10.69;100.00
51829;BME280;37881;48.024;8.774;2023-05-20T05:18:47;93804.56;;;10.92;100.00
51829;BME280;37881;48.024;8.774;2023-05-20T05:21:13;93806.63;;;11.08;100.00
51829;BME280;37881;48.024;8.774;2023-05-20T05:23:40;93807.09;;;10.83;100.00
51829;BME280;37881;48.024;8.774;2023-05-20T05:26:08;93802.16;;;10.94;100.00
51829;BME280;37881;48.024;8.774;2023-05-20T05:28:34;93808.69;;;10.80;100.00
51829;BME280;37881;48.024;8.774;2023-05-20T05:31:01;93801.41;;;10.70;100.00
51829;BME280;37881;48.024;8.774;2023-05-20T05:33:29;93796.03;;;10.86;100.00
51829;BME280;37881;48.024;8.774;2023-05-20T05:35:56;93792.94;;;10.84;100.00
51829;BME280;37881;48.024;8.774;2023-05-20T05:38:24;93789.72;;;11.09;100.00
51829;BME280;37881;48.024;8.774;2023-05-20T05:40:52;93785.84;;;11.27;100.00
51829;BME280;37881;48.024;8.774;2023-05-20T05:43:18;93793.88;;;11.17;100.00
51829;BME280;37881;48.024;8.774;2023-05-20T05:45:45;93796.34;;;11.32;100.00
51829;BME280;37881;48.024;8.774;2023-05-20T05:48:12;93792.41;;;11.33;100.00
51829;BME280;37881;48.024;8.774;2023-05-20T05:50:43;93800.13;;;10.54;100.00
51829;BME280;37881;48.024;8.774;2023-05-20T05:53:10;93794.09;;;10.39;100.00
51829;BME280;37881;48.024;8.774;2023-05-20T05:55:36;93792.81;;;10.91;100.00
51829;BME280;37881;48.024;8.774;2023-05-20T05:58:03;93802.31;;;10.63;100.00
51829;BME280;37881;48.024;8.774;2023-05-20T06:00:30;93795.06;;;11.16;100.00
51829;BME280;37881;48.024;8.774;2023-05-20T06:02:57;93799.72;;;11.39;100.00
51829;BME280;37881;48.024;8.774;2023-05-20T06:05:24;93799.19;;;11.65;100.00
51829;BME280;37881;48.024;8.774;2023-05-20T06:07:54;93793.97;;;11.70;100.00
51829;BME280;37881;48.024;8.774;2023-05-20T06:10:21;93799.88;;;11.89;100.00
51829;BME280;37881;48.024;8.774;2023-05-20T06:12:47;93804.88;;;10.74;100.00
51829;BME280;37881;48.024;8.774;2023-05-20T06:15:14;93801.19;;;11.24;100.00
51829;BME280;37881;48.024;8.774;2023-05-20T06:17:41;93799.06;;;10.92;100.00
51829;BME280;37881;48.024;8.774;2023-05-20T06:20:08;93799.16;;;11.08;100.00
51829;BME280;37881;48.024;8.774;2023-05-20T06:22:35;93799.28;;;11.61;100.00
51829;BME280;37881;48.024;8.774;2023-05-20T06:25:02;93801.94;;;11.65;100.00
51829;BME280;37881;48.024;8.774;2023-05-20T06:27:29;93797.66;;;11.64;100.00
51829;BME280;37881;48.024;8.774;2023-05-20T06:29:55;93799.88;;;11.69;100.00
51829;BME280;37881;48.024;8.774;2023-05-20T06:32:22;93784.34;;;11.42;100.00
51829;BME280;37881;48.024;8.774;2023-05-20T06:34:49;93792.53;;;11.26;100.00
51829;BME280;37881;48.024;8.774;2023-05-20T06:37:16;93786.28;;;11.45;100.00
51829;BME280;37881;48.024;8.774;2023-05-20T06:39:43;93777.09;;;11.52;100.00
51829;BME280;37881;48.024;8.774;2023-05-20T06:42:10;93771.56;;;11.35;100.00
51829;BME280;37881;48.024;8.774;2023-05-20T06:44:37;93769.63;;;11.12;100.00
51829;BME280;37881;48.024;8.774;2023-05-20T06:47:03;93782.75;;;11.05;100.00
51829;BME280;37881;48.024;8.774;2023-05-20T06:49:30;93791.81;;;10.58;100.00
51829;BME280;37881;48.024;8.774;2023-05-20T06:51:57;93793.63;;;10.88;100.00
51829;BME280;37881;48.024;8.774;2023-05-20T06:54:23;93790.13;;;11.08;100.00
51829;BME280;37881;48.024;8.774;2023-05-20T06:56:50;93783.06;;;11.47;100.00
51829;BME280;37881;48.024;8.774;2023-05-20T06:59:17;93778.44;;;11.80;100.00
51829;BME280;37881;48.024;8.774;2023-05-20T07:01:44;93775.47;;;11.91;100.00
51829;BME280;37881;48.024;8.774;2023-05-20T07:04:11;93767.34;;;12.20;100.00
51829;BME280;37881;48.024;8.774;2023-05-20T07:06:37;93759.09;;;12.36;100.00
51829;BME280;37881;48.024;8.774;2023-05-20T07:09:04;93767.75;;;12.51;100.00
51829;BME280;37881;48.024;8.774;2023-05-20T07:11:31;93756.13;;;12.76;100.00
51829;BME280;37881;48.024;8.774;2023-05-20T07:13:58;93757.03;;;11.91;100.00
51829;BME280;37881;48.024;8.774;2023-05-20T07:16:24;93756.44;;;12.00;100.00
51829;BME280;37881;48.024;8.774;2023-05-20T07:18:51;93753.94;;;11.89;100.00
51829;BME280;37881;48.024;8.774;2023-05-20T07:21:18;93755.34;;;12.59;100.00
51829;BME280;37881;48.024;8.774;2023-05-20T07:23:45;93757.19;;;12.33;100.00
51829;BME280;37881;48.024;8.774;2023-05-20T07:26:11;93755.41;;;12.10;100.00
51829;BME280;37881;48.024;8.774;2023-05-20T07:28:38;93767.41;;;12.49;100.00
51829;BME280;37881;48.024;8.774;2023-05-20T07:31:05;93757.53;;;12.52;100.00
51829;BME280;37881;48.024;8.774;2023-05-20T07:33:32;93752.69;;;12.72;100.00
51829;BME280;37881;48.024;8.774;2023-05-20T07:35:58;93758.75;;;12.34;100.00
51829;BME280;37881;48.024;8.774;2023-05-20T07:38:25;93752.09;;;12.65;100.00
51829;BME280;37881;48.024;8.774;2023-05-20T07:40:52;93754.63;;;12.88;100.00
51829;BME280;37881;48.024;8.774;2023-05-20T07:43:19;93751.63;;;13.12;100.00
51829;BME280;37881;48.024;8.774;2023-05-20T07:45:46;93758.16;;;12.89;100.00
51829;BME280;37881;48.024;8.774;2023-05-20T07:48:13;93755.56;;;12.82;100.00
51829;BME280;37881;48.024;8.774;2023-05-20T07:50:40;93759.25;;;12.62;100.00
51829;BME280;37881;48.024;8.774;2023-05-20T07:53:06;93755.22;;;12.50;100.00
51829;BME280;37881;48.024;8.774;2023-05-20T07:55:34;93758.53;;;12.74;100.00
51829;BME280;37881;48.024;8.774;2023-05-20T07:58:02;93743.00;;;13.10;100.00
51829;BME280;37881;48.024;8.774;2023-05-20T08:00:29;93758.09;;;12.76;100.00
51829;BME280;37881;48.024;8.774;2023-05-20T08:02:56;93743.41;;;13.25;100.00
51829;BME280;37881;48.024;8.774;2023-05-20T08:05:23;93748.19;;;12.78;100.00
51829;BME280;37881;48.024;8.774;2023-05-20T08:07:50;93739.94;;;13.37;100.00
51829;BME280;37881;48.024;8.774;2023-05-20T08:10:16;93748.25;;;12.91;100.00
51829;BME280;37881;48.024;8.774;2023-05-20T08:12:45;93757.81;;;12.87;100.00
51829;BME280;37881;48.024;8.774;2023-05-20T08:15:12;93763.78;;;12.69;100.00
51829;BME280;37881;48.024;8.774;2023-05-20T08:17:38;93747.34;;;13.24;100.00
51829;BME280;37881;48.024;8.774;2023-05-20T08:20:05;93761.88;;;12.82;100.00
51829;BME280;37881;48.024;8.774;2023-05-20T08:22:33;93760.94;;;12.72;100.00
51829;BME280;37881;48.024;8.774;2023-05-20T08:25:01;93747.69;;;13.26;100.00
51829;BME280;37881;48.024;8.774;2023-05-20T08:27:28;93752.72;;;13.44;100.00
51829;BME280;37881;48.024;8.774;2023-05-20T08:29:55;93752.09;;;13.65;100.00
51829;BME280;37881;48.024;8.774;2023-05-20T08:32:23;93743.75;;;13.82;100.00
51829;BME280;37881;48.024;8.774;2023-05-20T08:34:50;93751.47;;;13.99;100.00
51829;BME280;37881;48.024;8.774;2023-05-20T08:37:17;93753.84;;;13.17;100.00
51829;BME280;37881;48.024;8.774;2023-05-20T08:39:43;93758.72;;;12.67;100.00
51829;BME280;37881;48.024;8.774;2023-05-20T08:42:12;93756.47;;;13.37;100.00
51829;BME280;37881;48.024;8.774;2023-05-20T08:44:40;93756.94;;;13.48;100.00
51829;BME280;37881;48.024;8.774;2023-05-20T08:47:07;93759.22;;;13.37;100.00
51829;BME280;37881;48.024;8.774;2023-05-20T08:49:35;93768.50;;;12.85;100.00
51829;BME280;37881;48.024;8.774;2023-05-20T08:52:01;93758.28;;;13.27;100.00
51829;BME280;37881;48.024;8.774;2023-05-20T08:54:41;93747.25;;;14.33;100.00
51829;BME280;37881;48.024;8.774;2023-05-20T08:57:09;93756.25;;;14.72;100.00
51829;BME280;37881;48.024;8.774;2023-05-20T08:59:43;93756.41;;;14.30;100.00
51829;BME280;37881;48.024;8.774;2023-05-20T09:02:10;93749.91;;;14.85;100.00
51829;BME280;37881;48.024;8.774;2023-05-20T09:04:38;93745.38;;;15.57;100.00
51829;BME280;37881;48.024;8.774;2023-05-20T09:07:04;93749.16;;;15.06;100.00
51829;BME280;37881;48.024;8.774;2023-05-20T09:09:33;93747.06;;;15.32;100.00
51829;BME280;37881;48.024;8.774;2023-05-20T09:12:01;93745.69;;;14.93;100.00
51829;BME280;37881;48.024;8.774;2023-05-20T09:14:29;93749.31;;;14.68;100.00
51829;BME280;37881;48.024;8.774;2023-05-20T09:16:56;93744.50;;;15.38;100.00
51829;BME280;37881;48.024;8.774;2023-05-20T09:19:23;93748.88;;;14.56;100.00
51829;BME280;37881;48.024;8.774;2023-05-20T09:21:52;93754.84;;;14.55;100.00
51829;BME280;37881;48.024;8.774;2023-05-20T09:24:22;93756.53;;;14.27;100.00
51829;BME280;37881;48.024;8.774;2023-05-20T09:26:50;93749.53;;;14.48;100.00
51829;BME280;37881;48.024;8.774;2023-05-20T09:29:16;93742.28;;;15.55;100.00
51829;BME280;37881;48.024;8.774;2023-05-20T09:31:47;93743.44;;;15.67;100.00
51829;BME280;37881;48.024;8.774;2023-05-20T09:34:15;93748.00;;;15.83;100.00
51829;BME280;37881;48.024;8.774;2023-05-20T09:36:43;93744.16;;;15.80;100.00
51829;BME280;37881;48.024;8.774;2023-05-20T09:39:15;93746.09;;;15.26;100.00
51829;BME280;37881;48.024;8.774;2023-05-20T09:41:48;93744.63;;;15.34;100.00
51829;BME280;37881;48.024;8.774;2023-05-20T09:44:18;93744.28;;;14.28;100.00
51829;BME280;37881;48.024;8.774;2023-05-20T09:46:46;93739.03;;;14.55;100.00
51829;BME280;37881;48.024;8.774;2023-05-20T09:49:15;93741.28;;;15.17;100.00
51829;BME280;37881;48.024;8.774;2023-05-20T09:51:43;93745.25;;;15.16;100.00
51829;BME280;37881;48.024;8.774;2023-05-20T09:54:11;93744.69;;;15.22;100.00
51829;BME280;37881;48.024;8.774;2023-05-20T09:56:40;93737.78;;;16.42;100.00
51829;BME280;37881;48.024;8.774;2023-05-20T09:59:07;93732.84;;;17.85;92.83
51829;BME280;37881;48.024;8.774;2023-05-20T10:01:36;93739.38;;;16.71;98.41
51829;BME280;37881;48.024;8.774;2023-05-20T10:04:04;93741.28;;;15.40;100.00
51829;BME280;37881;48.024;8.774;2023-05-20T10:07:05;93738.06;;;14.97;100.00
51829;BME280;37881;48.024;8.774;2023-05-20T10:15:46;93727.75;;;15.64;100.00
51829;BME280;37881;48.024;8.774;2023-05-20T10:18:22;93727.25;;;16.18;100.00
51829;BME280;37881;48.024;8.774;2023-05-20T10:20:51;93718.69;;;16.53;100.00
51829;BME280;37881;48.024;8.774;2023-05-20T10:23:27;93724.75;;;17.26;100.00
51829;BME280;37881;48.024;8.774;2023-05-20T10:25:55;93716.72;;;17.55;94.58
51829;BME280;37881;48.024;8.774;2023-05-20T10:28:30;93707.94;;;18.90;87.38
51829;BME280;37881;48.024;8.774;2023-05-20T10:30:58;93704.16;;;19.86;79.08
51829;BME280;37881;48.024;8.774;2023-05-20T10:33:26;93700.66;;;20.57;72.33
51829;BME280;37881;48.024;8.774;2023-05-20T10:35:59;93701.38;;;20.37;71.43
51829;BME280;37881;48.024;8.774;2023-05-20T10:38:26;93701.31;;;19.27;74.93
51829;BME280;37881;48.024;8.774;2023-05-20T10:40:54;93696.66;;;19.63;74.26
51829;BME280;37881;48.024;8.774;2023-05-20T10:43:26;93691.13;;;19.09;76.81
51829;BME280;37881;48.024;8.774;2023-05-20T10:45:55;93683.03;;;20.30;74.73
51829;BME280;37881;48.024;8.774;2023-05-20T10:48:30;93684.28;;;20.64;72.81
51829;BME280;37881;48.024;8.774;2023-05-20T10:51:00;93673.16;;;19.79;71.91
51829;BME280;37881;48.024;8.774;2023-05-20T10:53:40;93674.97;;;21.55;67.71
51829;BME280;37881;48.024;8.774;2023-05-20T10:56:17;93673.63;;;21.04;69.92
51829;BME280;37881;48.024;8.774;2023-05-20T10:58:44;93684.31;;;20.85;66.82
51829;BME280;37881;48.024;8.774;2023-05-20T11:01:12;93691.94;;;19.39;70.66
51829;BME280;37881;48.024;8.774;2023-05-20T11:03:40;93689.44;;;18.06;79.37
51829;BME280;37881;48.024;8.774;2023-05-20T11:06:15;93685.59;;;17.51;87.80
51829;BME280;37881;48.024;8.774;2023-05-20T11:08:44;93679.63;;;17.34;87.54
51829;BME280;37881;48.024;8.774;2023-05-20T11:11:12;93690.56;;;17.81;87.47
51829;BME280;37881;48.024;8.774;2023-05-20T11:13:39;93685.78;;;17.39;88.79
51829;BME280;37881;48.024;8.774;2023-05-20T11:16:06;93677.31;;;17.94;83.02
51829;BME280;37881;48.024;8.774;2023-05-20T11:18:33;93670.56;;;18.91;79.20
51829;BME280;37881;48.024;8.774;2023-05-20T11:21:01;93657.63;;;19.72;74.04
51829;BME280;37881;48.024;8.774;2023-05-20T11:23:28;93650.94;;;20.55;70.82
51829;BME280;37881;48.024;8.774;2023-05-20T11:25:56;93643.34;;;20.00;71.41
51829;BME280;37881;48.024;8.774;2023-05-20T11:28:23;93647.97;;;19.43;73.24
51829;BME280;37881;48.024;8.774;2023-05-20T11:30:51;93653.50;;;20.38;68.30
51829;BME280;37881;48.024;8.774;2023-05-20T11:33:18;93653.38;;;20.12;69.16
51829;BME280;37881;48.024;8.774;2023-05-20T11:38:13;93651.47;;;18.84;72.30
51829;BME280;37881;48.024;8.774;2023-05-20T11:40:53;93643.84;;;19.09;69.83
51829;BME280;37881;48.024;8.774;2023-05-20T11:43:22;93635.72;;;19.50;75.18
51829;BME280;37881;48.024;8.774;2023-05-20T11:45:56;93636.28;;;19.39;74.78
51829;BME280;37881;48.024;8.774;2023-05-20T11:48:27;93640.09;;;19.27;71.84
51829;BME280;37881;48.024;8.774;2023-05-20T11:50:54;93637.09;;;19.01;73.97
51829;BME280;37881;48.024;8.774;2023-05-20T11:53:23;93630.03;;;19.59;72.47
51829;BME280;37881;48.024;8.774;2023-05-20T11:55:55;93634.84;;;18.27;74.10
51829;BME280;37881;48.024;8.774;2023-05-20T11:58:24;93635.47;;;18.94;75.25
51829;BME280;37881;48.024;8.774;2023-05-20T12:00:51;93636.84;;;19.73;70.94
51829;BME280;37881;48.024;8.774;2023-05-20T12:03:27;93638.28;;;19.53;69.08
51829;BME280;37881;48.024;8.774;2023-05-20T12:05:54;93635.13;;;19.90;67.94
51829;BME280;37881;48.024;8.774;2023-05-20T12:08:21;93648.28;;;19.75;69.28
51829;BME280;37881;48.024;8.774;2023-05-20T12:10:48;93644.22;;;20.62;68.52
51829;BME280;37881;48.024;8.774;2023-05-20T12:13:15;93643.31;;;20.91;65.55
51829;BME280;37881;48.024;8.774;2023-05-20T12:15:41;93649.47;;;20.04;68.78
51829;BME280;37881;48.024;8.774;2023-05-20T12:18:08;93646.06;;;19.79;69.61
51829;BME280;37881;48.024;8.774;2023-05-20T12:20:35;93645.38;;;19.40;69.71
51829;BME280;37881;48.024;8.774;2023-05-20T12:23:03;93636.56;;;19.41;69.04
51829;BME280;37881;48.024;8.774;2023-05-20T12:25:30;93640.06;;;20.01;67.88
51829;BME280;37881;48.024;8.774;2023-05-20T12:27:58;93638.00;;;20.93;64.46
51829;BME280;37881;48.024;8.774;2023-05-20T12:30:24;93635.00;;;19.25;68.91
51829;BME280;37881;48.024;8.774;2023-05-20T12:32:51;93645.72;;;20.07;68.34
51829;BME280;37881;48.024;8.774;2023-05-20T12:35:39;93641.72;;;19.63;71.30
51829;BME280;37881;48.024;8.774;2023-05-20T12:38:07;93638.84;;;19.87;70.94
51829;BME280;37881;48.024;8.774;2023-05-20T12:40:35;93637.75;;;18.81;76.43
51829;BME280;37881;48.024;8.774;2023-05-20T12:43:03;93623.34;;;19.36;76.10
51829;BME280;37881;48.024;8.774;2023-05-20T12:45:30;93623.59;;;20.18;71.88
51829;BME280;37881;48.024;8.774;2023-05-20T12:47:57;93630.59;;;20.49;72.25
51829;BME280;37881;48.024;8.774;2023-05-20T12:50:24;93628.28;;;20.47;69.34
51829;BME280;37881;48.024;8.774;2023-05-20T12:52:51;93640.94;;;18.88;75.36
51829;BME280;37881;48.024;8.774;2023-05-20T12:55:18;93624.47;;;19.44;72.88
51829;BME280;37881;48.024;8.774;2023-05-20T12:57:46;93623.72;;;20.09;68.71
51829;BME280;37881;48.024;8.774;2023-05-20T13:00:14;93623.59;;;18.93;73.56
51829;BME280;37881;48.024;8.774;2023-05-20T13:02:41;93617.56;;;19.84;71.76
51829;BME280;37881;48.024;8.774;2023-05-20T13:05:09;93621.94;;;20.26;68.95
51829;BME280;37881;48.024;8.774;2023-05-20T13:07:36;93622.94;;;19.43;70.94